sensor_id;sensor_type;location;lat;lon;timestamp;P1;durP1;ratioP1;P2;durP2;ratioP2
22480;SDS011;11407;56.964;-2.212;2023-05-16T00:02:02;3.33;;;0.97;;
22480;SDS011;11407;56.964;-2.212;2023-05-16T00:04:29;2.30;;;1.00;;
22480;SDS011;11407;56.964;-2.212;2023-05-16T00:06:57;3.33;;;1.20;;
22480;SDS011;11407;56.964;-2.212;2023-05-16T00:09:22;2.27;;;1.17;;
22480;SDS011;11407;56.964;-2.212;2023-05-16T00:11:47;1.43;;;1.00;;
22480;SDS011;11407;56.964;-2.212;2023-05-16T00:14:12;2.40;;;1.00;;
22480;SDS011;11407;56.964;-2.212;2023-05-16T00:16:39;3.07;;;1.00;;
22480;SDS011;11407;56.964;-2.212;2023-05-16T00:19:06;2.77;;;1.00;;
22480;SDS011;11407;56.964;-2.212;2023-05-16T00:21:31;1.83;;;0.90;;
22480;SDS011;11407;56.964;-2.212;2023-05-16T00:23:57;2.43;;;0.90;;
22480;SDS011;11407;56.964;-2.212;2023-05-16T00:26:22;1.80;;;0.90;;
22480;SDS011;11407;56.964;-2.212;2023-05-16T00:28:47;5.03;;;1.30;;
22480;SDS011;11407;56.964;-2.212;2023-05-16T00:31:12;2.97;;;1.20;;
22480;SDS011;11407;56.964;-2.212;2023-05-16T00:33:38;2.27;;;1.13;;
22480;SDS011;11407;56.964;-2.212;2023-05-16T00:36:03;3.40;;;1.20;;
22480;SDS011;11407;56.964;-2.212;2023-05-16T00:38:28;2.93;;;1.27;;
22480;SDS011;11407;56.964;-2.212;2023-05-16T00:40:54;4.83;;;1.50;;
22480;SDS011;11407;56.964;-2.212;2023-05-16T00:43:19;3.97;;;1.50;;
22480;SDS011;11407;56.964;-2.212;2023-05-16T00:45:44;2.93;;;1.40;;
22480;SDS011;11407;56.964;-2.212;2023-05-16T00:48:12;3.27;;;1.53;;
22480;SDS011;11407;56.964;-2.212;2023-05-16T00:50:38;6.03;;;1.50;;
22480;SDS011;11407;56.964;-2.212;2023-05-16T00:53:03;3.30;;;1.37;;
22480;SDS011;11407;56.964;-2.212;2023-05-16T00:55:28;3.07;;;1.50;;
22480;SDS011;11407;56.964;-2.212;2023-05-16T00:57:54;2.30;;;1.30;;
22480;SDS011;11407;56.964;-2.212;2023-05-16T01:00:21;2.70;;;1.33;;
22480;SDS011;11407;56.964;-2.212;2023-05-16T01:02:46;2.70;;;1.30;;
22480;SDS011;11407;56.964;-2.212;2023-05-16T01:05:12;3.17;;;1.53;;
22480;SDS011;11407;56.964;-2.212;2023-05-16T01:07:37;2.90;;;1.40;;
22480;SDS011;11407;56.964;-2.212;2023-05-16T01:10:03;3.43;;;1.40;;
22480;SDS011;11407;56.964;-2.212;2023-05-16T01:12:36;3.67;;;1.20;;
22480;SDS011;11407;56.964;-2.212;2023-05-16T01:15:05;2.47;;;1.30;;
22480;SDS011;11407;56.964;-2.212;2023-05-16T01:27:40;3.53;;;1.20;;
22480;SDS011;11407;56.964;-2.212;2023-05-16T01:30:13;2.67;;;1.47;;
22480;SDS011;11407;56.964;-2.212;2023-05-16T01:32:40;2.27;;;1.17;;
22480;SDS011;11407;56.964;-2.212;2023-05-16T01:35:05;1.90;;;1.20;;
22480;SDS011;11407;56.964;-2.212;2023-05-16T01:37:35;3.73;;;1.10;;
22480;SDS011;11407;56.964;-2.212;2023-05-16T01:40:02;4.10;;;1.47;;
22480;SDS011;11407;56.964;-2.212;2023-05-16T01:42:32;3.80;;;1.30;;
22480;SDS011;11407;56.964;-2.212;2023-05-16T01:45:08;1.47;;;1.00;;
22480;SDS011;11407;56.964;-2.212;2023-05-16T01:47:38;1.63;;;1.10;;
22480;SDS011;11407;56.964;-2.212;2023-05-16T01:50:09;1.80;;;1.20;;
22480;SDS011;11407;56.964;-2.212;2023-05-16T01:52:40;2.67;;;1.30;;
22480;SDS011;11407;56.964;-2.212;2023-05-16T01:55:09;2.20;;;1.20;;
22480;SDS011;11407;56.964;-2.212;2023-05-16T01:57:36;3.37;;;1.10;;
22480;SDS011;11407;56.964;-2.212;2023-05-16T02:00:03;2.97;;;1.40;;
22480;SDS011;11407;56.964;-2.212;2023-05-16T02:02:29;3.03;;;1.33;;
22480;SDS011;11407;56.964;-2.212;2023-05-16T02:04:55;2.20;;;1.30;;
22480;SDS011;11407;56.964;-2.212;2023-05-16T02:07:20;2.33;;;1.10;;
22480;SDS011;11407;56.964;-2.212;2023-05-16T02:09:45;4.80;;;1.40;;
22480;SDS011;11407;56.964;-2.212;2023-05-16T02:12:10;2.97;;;1.33;;
22480;SDS011;11407;56.964;-2.212;2023-05-16T02:14:36;2.80;;;1.40;;
22480;SDS011;11407;56.964;-2.212;2023-05-16T02:17:01;3.10;;;1.60;;
22480;SDS011;11407;56.964;-2.212;2023-05-16T02:19:26;1.70;;;1.30;;
22480;SDS011;11407;56.964;-2.212;2023-05-16T02:21:51;3.93;;;1.40;;
22480;SDS011;11407;56.964;-2.212;2023-05-16T02:24:17;2.90;;;1.30;;
22480;SDS011;11407;56.964;-2.212;2023-05-16T02:26:42;3.07;;;1.20;;
22480;SDS011;11407;56.964;-2.212;2023-05-16T02:29:08;5.43;;;1.73;;
22480;SDS011;11407;56.964;-2.212;2023-05-16T02:31:33;4.27;;;1.50;;
22480;SDS011;11407;56.964;-2.212;2023-05-16T02:33:59;4.30;;;1.43;;
22480;SDS011;11407;56.964;-2.212;2023-05-16T02:36:24;3.37;;;1.20;;
22480;SDS011;11407;56.964;-2.212;2023-05-16T02:38:49;2.80;;;1.30;;
22480;SDS011;11407;56.964;-2.212;2023-05-16T02:41:15;2.67;;;1.60;;
22480;SDS011;11407;56.964;-2.212;2023-05-16T02:43:40;2.40;;;1.40;;
22480;SDS011;11407;56.964;-2.212;2023-05-16T02:48:51;5.20;;;1.60;;
22480;SDS011;11407;56.964;-2.212;2023-05-16T02:51:18;2.70;;;1.60;;
22480;SDS011;11407;56.964;-2.212;2023-05-16T02:53:44;3.23;;;1.40;;
22480;SDS011;11407;56.964;-2.212;2023-05-16T02:56:09;5.13;;;1.90;;
22480;SDS011;11407;56.964;-2.212;2023-05-16T02:58:34;5.47;;;1.80;;
22480;SDS011;11407;56.964;-2.212;2023-05-16T03:01:00;2.60;;;1.30;;
22480;SDS011;11407;56.964;-2.212;2023-05-16T03:03:25;8.80;;;1.60;;
22480;SDS011;11407;56.964;-2.212;2023-05-16T03:05:50;6.10;;;1.70;;
22480;SDS011;11407;56.964;-2.212;2023-05-16T03:08:16;3.93;;;1.60;;
22480;SDS011;11407;56.964;-2.212;2023-05-16T03:10:41;3.33;;;1.60;;
22480;SDS011;11407;56.964;-2.212;2023-05-16T03:13:06;2.67;;;1.20;;
22480;SDS011;11407;56.964;-2.212;2023-05-16T03:15:31;4.43;;;1.40;;
22480;SDS011;11407;56.964;-2.212;2023-05-16T03:17:56;2.80;;;1.37;;
22480;SDS011;11407;56.964;-2.212;2023-05-16T03:20:22;3.70;;;1.30;;
22480;SDS011;11407;56.964;-2.212;2023-05-16T03:22:47;4.00;;;1.60;;
22480;SDS011;11407;56.964;-2.212;2023-05-16T03:25:12;2.77;;;1.40;;
22480;SDS011;11407;56.964;-2.212;2023-05-16T03:27:38;4.60;;;1.40;;
22480;SDS011;11407;56.964;-2.212;2023-05-16T03:30:03;3.70;;;1.30;;
22480;SDS011;11407;56.964;-2.212;2023-05-16T03:32:29;2.17;;;1.20;;
22480;SDS011;11407;56.964;-2.212;2023-05-16T03:34:54;3.70;;;1.50;;
22480;SDS011;11407;56.964;-2.212;2023-05-16T03:37:19;4.33;;;1.50;;
22480;SDS011;11407;56.964;-2.212;2023-05-16T03:39:45;3.80;;;1.20;;
22480;SDS011;11407;56.964;-2.212;2023-05-16T03:42:10;3.33;;;1.60;;
22480;SDS011;11407;56.964;-2.212;2023-05-16T03:44:36;4.63;;;1.53;;
22480;SDS011;11407;56.964;-2.212;2023-05-16T03:47:01;4.47;;;1.50;;
22480;SDS011;11407;56.964;-2.212;2023-05-16T03:49:26;4.57;;;1.47;;
22480;SDS011;11407;56.964;-2.212;2023-05-16T03:51:52;3.73;;;1.40;;
22480;SDS011;11407;56.964;-2.212;2023-05-16T03:54:17;3.27;;;1.53;;
22480;SDS011;11407;56.964;-2.212;2023-05-16T03:56:43;3.90;;;1.37;;
22480;SDS011;11407;56.964;-2.212;2023-05-16T03:59:08;4.23;;;1.70;;
22480;SDS011;11407;56.964;-2.212;2023-05-16T04:01:33;5.27;;;1.50;;
22480;SDS011;11407;56.964;-2.212;2023-05-16T04:03:58;2.80;;;1.33;;
22480;SDS011;11407;56.964;-2.212;2023-05-16T04:06:24;5.33;;;1.70;;
22480;SDS011;11407;56.964;-2.212;2023-05-16T04:08:49;3.70;;;1.37;;
22480;SDS011;11407;56.964;-2.212;2023-05-16T04:11:15;2.60;;;1.30;;
22480;SDS011;11407;56.964;-2.212;2023-05-16T04:13:40;3.33;;;1.50;;
22480;SDS011;11407;56.964;-2.212;2023-05-16T04:16:05;3.67;;;1.50;;
22480;SDS011;11407;56.964;-2.212;2023-05-16T04:18:31;9.23;;;1.87;;
22480;SDS011;11407;56.964;-2.212;2023-05-16T04:20:56;4.37;;;1.57;;
22480;SDS011;11407;56.964;-2.212;2023-05-16T04:23:22;2.27;;;1.50;;
22480;SDS011;11407;56.964;-2.212;2023-05-16T04:25:47;3.90;;;1.57;;
22480;SDS011;11407;56.964;-2.212;2023-05-16T04:28:12;4.77;;;1.80;;
22480;SDS011;11407;56.964;-2.212;2023-05-16T04:30:37;5.10;;;1.80;;
22480;SDS011;11407;56.964;-2.212;2023-05-16T04:33:03;7.37;;;1.63;;
22480;SDS011;11407;56.964;-2.212;2023-05-16T04:35:28;3.20;;;1.50;;
22480;SDS011;11407;56.964;-2.212;2023-05-16T04:37:53;4.23;;;1.77;;
22480;SDS011;11407;56.964;-2.212;2023-05-16T04:40:19;5.13;;;1.80;;
22480;SDS011;11407;56.964;-2.212;2023-05-16T04:42:44;3.67;;;1.90;;
22480;SDS011;11407;56.964;-2.212;2023-05-16T04:45:09;3.13;;;1.70;;
22480;SDS011;11407;56.964;-2.212;2023-05-16T04:47:36;3.93;;;2.03;;
22480;SDS011;11407;56.964;-2.212;2023-05-16T04:50:02;4.37;;;1.97;;
22480;SDS011;11407;56.964;-2.212;2023-05-16T04:52:27;3.73;;;1.80;;
22480;SDS011;11407;56.964;-2.212;2023-05-16T04:54:52;5.87;;;2.10;;
22480;SDS011;11407;56.964;-2.212;2023-05-16T04:57:18;3.90;;;1.87;;
22480;SDS011;11407;56.964;-2.212;2023-05-16T04:59:43;3.97;;;1.90;;
22480;SDS011;11407;56.964;-2.212;2023-05-16T05:02:08;3.77;;;2.10;;
22480;SDS011;11407;56.964;-2.212;2023-05-16T05:04:34;6.57;;;2.43;;
22480;SDS011;11407;56.964;-2.212;2023-05-16T05:06:59;6.47;;;2.10;;
22480;SDS011;11407;56.964;-2.212;2023-05-16T05:09:24;5.50;;;1.90;;
22480;SDS011;11407;56.964;-2.212;2023-05-16T05:11:50;6.00;;;1.97;;
22480;SDS011;11407;56.964;-2.212;2023-05-16T05:14:15;6.23;;;2.53;;
22480;SDS011;11407;56.964;-2.212;2023-05-16T05:16:40;6.43;;;2.37;;
22480;SDS011;11407;56.964;-2.212;2023-05-16T05:19:05;6.87;;;2.07;;
22480;SDS011;11407;56.964;-2.212;2023-05-16T05:21:32;5.67;;;2.23;;
22480;SDS011;11407;56.964;-2.212;2023-05-16T05:23:58;4.47;;;2.20;;
22480;SDS011;11407;56.964;-2.212;2023-05-16T05:26:23;5.37;;;2.53;;
22480;SDS011;11407;56.964;-2.212;2023-05-16T05:28:50;7.87;;;2.20;;
22480;SDS011;11407;56.964;-2.212;2023-05-16T05:31:15;6.90;;;2.47;;
22480;SDS011;11407;56.964;-2.212;2023-05-16T05:33:40;8.20;;;2.33;;
22480;SDS011;11407;56.964;-2.212;2023-05-16T05:36:06;5.07;;;2.13;;
22480;SDS011;11407;56.964;-2.212;2023-05-16T05:38:31;3.70;;;2.10;;
22480;SDS011;11407;56.964;-2.212;2023-05-16T05:40:57;6.73;;;2.57;;
22480;SDS011;11407;56.964;-2.212;2023-05-16T05:43:22;7.63;;;2.23;;
22480;SDS011;11407;56.964;-2.212;2023-05-16T05:45:48;6.87;;;2.40;;
22480;SDS011;11407;56.964;-2.212;2023-05-16T05:48:13;5.30;;;2.27;;
22480;SDS011;11407;56.964;-2.212;2023-05-16T05:50:38;8.20;;;2.23;;
22480;SDS011;11407;56.964;-2.212;2023-05-16T05:53:04;4.53;;;2.10;;
22480;SDS011;11407;56.964;-2.212;2023-05-16T05:55:29;4.77;;;2.67;;
22480;SDS011;11407;56.964;-2.212;2023-05-16T05:57:55;7.43;;;2.37;;
22480;SDS011;11407;56.964;-2.212;2023-05-16T06:00:20;7.13;;;2.37;;
22480;SDS011;11407;56.964;-2.212;2023-05-16T06:02:46;3.83;;;2.07;;
22480;SDS011;11407;56.964;-2.212;2023-05-16T06:05:12;7.27;;;2.50;;
22480;SDS011;11407;56.964;-2.212;2023-05-16T06:07:37;4.07;;;2.30;;
22480;SDS011;11407;56.964;-2.212;2023-05-16T06:10:02;7.60;;;2.50;;
22480;SDS011;11407;56.964;-2.212;2023-05-16T06:12:29;5.40;;;2.10;;
22480;SDS011;11407;56.964;-2.212;2023-05-16T06:14:55;5.50;;;2.73;;
22480;SDS011;11407;56.964;-2.212;2023-05-16T06:17:20;5.80;;;2.77;;
22480;SDS011;11407;56.964;-2.212;2023-05-16T06:19:45;4.67;;;2.10;;
22480;SDS011;11407;56.964;-2.212;2023-05-16T06:22:11;7.63;;;3.13;;
22480;SDS011;11407;56.964;-2.212;2023-05-16T06:24:36;3.67;;;2.20;;
22480;SDS011;11407;56.964;-2.212;2023-05-16T06:27:01;6.90;;;2.20;;
22480;SDS011;11407;56.964;-2.212;2023-05-16T06:29:27;4.23;;;2.20;;
22480;SDS011;11407;56.964;-2.212;2023-05-16T06:31:52;4.97;;;2.33;;
22480;SDS011;11407;56.964;-2.212;2023-05-16T06:34:17;5.87;;;2.20;;
22480;SDS011;11407;56.964;-2.212;2023-05-16T06:36:42;6.77;;;2.37;;
22480;SDS011;11407;56.964;-2.212;2023-05-16T06:39:08;8.03;;;2.37;;
22480;SDS011;11407;56.964;-2.212;2023-05-16T06:41:33;3.67;;;1.80;;
22480;SDS011;11407;56.964;-2.212;2023-05-16T06:43:59;5.63;;;2.20;;
22480;SDS011;11407;56.964;-2.212;2023-05-16T06:46:24;4.57;;;1.90;;
22480;SDS011;11407;56.964;-2.212;2023-05-16T06:48:50;3.07;;;1.83;;
22480;SDS011;11407;56.964;-2.212;2023-05-16T06:51:15;7.50;;;1.73;;
22480;SDS011;11407;56.964;-2.212;2023-05-16T06:53:40;5.37;;;1.67;;
22480;SDS011;11407;56.964;-2.212;2023-05-16T06:56:06;2.37;;;1.50;;
22480;SDS011;11407;56.964;-2.212;2023-05-16T06:58:31;3.10;;;1.27;;
22480;SDS011;11407;56.964;-2.212;2023-05-16T07:00:56;2.30;;;1.30;;
22480;SDS011;11407;56.964;-2.212;2023-05-16T07:03:22;4.23;;;1.63;;
22480;SDS011;11407;56.964;-2.212;2023-05-16T07:05:47;1.83;;;1.30;;
22480;SDS011;11407;56.964;-2.212;2023-05-16T07:08:14;3.57;;;1.50;;
22480;SDS011;11407;56.964;-2.212;2023-05-16T07:10:40;2.63;;;1.50;;
22480;SDS011;11407;56.964;-2.212;2023-05-16T07:13:05;3.70;;;1.30;;
22480;SDS011;11407;56.964;-2.212;2023-05-16T07:15:30;3.13;;;1.70;;
22480;SDS011;11407;56.964;-2.212;2023-05-16T07:17:56;1.70;;;1.33;;
22480;SDS011;11407;56.964;-2.212;2023-05-16T07:20:21;3.17;;;1.40;;
22480;SDS011;11407;56.964;-2.212;2023-05-16T07:22:46;3.23;;;1.30;;
22480;SDS011;11407;56.964;-2.212;2023-05-16T07:25:12;3.23;;;1.47;;
22480;SDS011;11407;56.964;-2.212;2023-05-16T07:27:39;3.17;;;1.40;;
22480;SDS011;11407;56.964;-2.212;2023-05-16T07:30:09;6.03;;;1.77;;
22480;SDS011;11407;56.964;-2.212;2023-05-16T07:32:35;2.57;;;1.50;;
22480;SDS011;11407;56.964;-2.212;2023-05-16T07:35:00;2.83;;;1.33;;
22480;SDS011;11407;56.964;-2.212;2023-05-16T07:37:25;3.13;;;1.70;;
22480;SDS011;11407;56.964;-2.212;2023-05-16T07:39:50;3.03;;;1.57;;
22480;SDS011;11407;56.964;-2.212;2023-05-16T07:42:16;4.60;;;1.37;;
22480;SDS011;11407;56.964;-2.212;2023-05-16T07:44:41;3.80;;;1.50;;
22480;SDS011;11407;56.964;-2.212;2023-05-16T07:47:06;3.03;;;1.37;;
22480;SDS011;11407;56.964;-2.212;2023-05-16T07:49:31;2.73;;;1.50;;
22480;SDS011;11407;56.964;-2.212;2023-05-16T07:51:57;3.53;;;1.53;;
22480;SDS011;11407;56.964;-2.212;2023-05-16T07:54:22;3.10;;;1.40;;
22480;SDS011;11407;56.964;-2.212;2023-05-16T07:56:47;2.90;;;1.30;;
22480;SDS011;11407;56.964;-2.212;2023-05-16T07:59:12;2.83;;;1.27;;
22480;SDS011;11407;56.964;-2.212;2023-05-16T08:01:38;1.77;;;1.20;;
22480;SDS011;11407;56.964;-2.212;2023-05-16T08:04:03;3.60;;;1.30;;
22480;SDS011;11407;56.964;-2.212;2023-05-16T08:06:28;2.13;;;1.20;;
22480;SDS011;11407;56.964;-2.212;2023-05-16T08:08:54;3.37;;;1.50;;
22480;SDS011;11407;56.964;-2.212;2023-05-16T08:11:20;3.30;;;1.40;;
22480;SDS011;11407;56.964;-2.212;2023-05-16T08:13:46;2.63;;;1.50;;
22480;SDS011;11407;56.964;-2.212;2023-05-16T08:16:11;3.40;;;1.67;;
22480;SDS011;11407;56.964;-2.212;2023-05-16T08:18:36;2.13;;;1.50;;
22480;SDS011;11407;56.964;-2.212;2023-05-16T08:21:02;2.23;;;1.17;;
22480;SDS011;11407;56.964;-2.212;2023-05-16T08:23:27;3.37;;;1.40;;
22480;SDS011;11407;56.964;-2.212;2023-05-16T08:25:52;2.13;;;1.30;;
22480;SDS011;11407;56.964;-2.212;2023-05-16T08:28:18;2.30;;;1.37;;
22480;SDS011;11407;56.964;-2.212;2023-05-16T08:30:43;1.87;;;1.10;;
22480;SDS011;11407;56.964;-2.212;2023-05-16T08:33:09;1.90;;;1.00;;
22480;SDS011;11407;56.964;-2.212;2023-05-16T08:35:34;3.07;;;1.20;;
22480;SDS011;11407;56.964;-2.212;2023-05-16T08:38:00;3.50;;;1.27;;
22480;SDS011;11407;56.964;-2.212;2023-05-16T08:40:27;2.83;;;1.20;;
22480;SDS011;11407;56.964;-2.212;2023-05-16T08:42:52;3.30;;;1.30;;
22480;SDS011;11407;56.964;-2.212;2023-05-16T08:45:18;2.13;;;1.30;;
22480;SDS011;11407;56.964;-2.212;2023-05-16T08:47:43;1.60;;;1.20;;
22480;SDS011;11407;56.964;-2.212;2023-05-16T08:50:09;2.23;;;1.00;;
22480;SDS011;11407;56.964;-2.212;2023-05-16T08:52:34;2.47;;;1.37;;
22480;SDS011;11407;56.964;-2.212;2023-05-16T08:55:02;2.03;;;1.17;;
22480;SDS011;11407;56.964;-2.212;2023-05-16T08:57:31;2.10;;;1.20;;
22480;SDS011;11407;56.964;-2.212;2023-05-16T08:59:58;2.40;;;1.20;;
22480;SDS011;11407;56.964;-2.212;2023-05-16T09:02:23;1.70;;;1.10;;
22480;SDS011;11407;56.964;-2.212;2023-05-16T09:04:49;1.23;;;1.13;;
22480;SDS011;11407;56.964;-2.212;2023-05-16T09:07:15;3.43;;;1.47;;
22480;SDS011;11407;56.964;-2.212;2023-05-16T09:09:41;1.87;;;1.10;;
22480;SDS011;11407;56.964;-2.212;2023-05-16T09:12:06;2.97;;;1.30;;
22480;SDS011;11407;56.964;-2.212;2023-05-16T09:14:32;2.97;;;1.30;;
22480;SDS011;11407;56.964;-2.212;2023-05-16T09:17:04;1.73;;;1.30;;
22480;SDS011;11407;56.964;-2.212;2023-05-16T09:19:39;4.30;;;1.33;;
22480;SDS011;11407;56.964;-2.212;2023-05-16T09:22:14;1.53;;;1.23;;
22480;SDS011;11407;56.964;-2.212;2023-05-16T09:24:39;2.80;;;1.40;;
22480;SDS011;11407;56.964;-2.212;2023-05-16T09:27:11;2.83;;;1.60;;
22480;SDS011;11407;56.964;-2.212;2023-05-16T09:29:40;3.17;;;1.77;;
22480;SDS011;11407;56.964;-2.212;2023-05-16T09:32:09;4.80;;;1.63;;
22480;SDS011;11407;56.964;-2.212;2023-05-16T09:37:08;2.37;;;1.70;;
22480;SDS011;11407;56.964;-2.212;2023-05-16T09:39:34;2.27;;;1.63;;
22480;SDS011;11407;56.964;-2.212;2023-05-16T09:41:59;3.73;;;1.70;;
22480;SDS011;11407;56.964;-2.212;2023-05-16T09:44:24;2.80;;;2.00;;
22480;SDS011;11407;56.964;-2.212;2023-05-16T09:46:52;3.27;;;1.80;;
22480;SDS011;11407;56.964;-2.212;2023-05-16T09:49:17;3.30;;;1.97;;
22480;SDS011;11407;56.964;-2.212;2023-05-16T09:51:43;4.13;;;1.87;;
22480;SDS011;11407;56.964;-2.212;2023-05-16T09:54:09;3.40;;;2.13;;
22480;SDS011;11407;56.964;-2.212;2023-05-16T09:56:47;3.90;;;2.10;;
22480;SDS011;11407;56.964;-2.212;2023-05-16T09:59:13;4.03;;;2.00;;
22480;SDS011;11407;56.964;-2.212;2023-05-16T10:01:38;3.47;;;1.87;;
22480;SDS011;11407;56.964;-2.212;2023-05-16T10:04:04;5.13;;;2.10;;
22480;SDS011;11407;56.964;-2.212;2023-05-16T10:06:29;3.10;;;1.70;;
22480;SDS011;11407;56.964;-2.212;2023-05-16T10:08:54;2.63;;;1.60;;
22480;SDS011;11407;56.964;-2.212;2023-05-16T10:11:20;4.40;;;1.80;;
22480;SDS011;11407;56.964;-2.212;2023-05-16T10:13:46;3.67;;;2.20;;
22480;SDS011;11407;56.964;-2.212;2023-05-16T10:16:17;3.10;;;2.00;;
22480;SDS011;11407;56.964;-2.212;2023-05-16T10:18:42;3.33;;;1.80;;
22480;SDS011;11407;56.964;-2.212;2023-05-16T10:21:09;4.70;;;2.33;;
22480;SDS011;11407;56.964;-2.212;2023-05-16T10:23:40;4.13;;;2.10;;
22480;SDS011;11407;56.964;-2.212;2023-05-16T10:26:05;3.00;;;1.80;;
22480;SDS011;11407;56.964;-2.212;2023-05-16T10:28:31;4.13;;;1.70;;
22480;SDS011;11407;56.964;-2.212;2023-05-16T10:30:56;3.40;;;2.20;;
22480;SDS011;11407;56.964;-2.212;2023-05-16T10:33:22;3.87;;;2.43;;
22480;SDS011;11407;56.964;-2.212;2023-05-16T10:35:48;4.53;;;2.20;;
22480;SDS011;11407;56.964;-2.212;2023-05-16T10:38:15;3.80;;;2.17;;
22480;SDS011;11407;56.964;-2.212;2023-05-16T10:40:41;4.10;;;2.30;;
22480;SDS011;11407;56.964;-2.212;2023-05-16T10:43:07;3.10;;;1.80;;
22480;SDS011;11407;56.964;-2.212;2023-05-16T10:45:33;3.37;;;1.77;;
22480;SDS011;11407;56.964;-2.212;2023-05-16T10:48:03;2.97;;;1.87;;
22480;SDS011;11407;56.964;-2.212;2023-05-16T10:50:41;4.37;;;2.00;;
22480;SDS011;11407;56.964;-2.212;2023-05-16T10:55:39;3.53;;;2.00;;
22480;SDS011;11407;56.964;-2.212;2023-05-16T10:58:04;6.20;;;2.10;;
22480;SDS011;11407;56.964;-2.212;2023-05-16T11:00:29;3.97;;;1.80;;
22480;SDS011;11407;56.964;-2.212;2023-05-16T11:03:03;3.80;;;2.03;;
22480;SDS011;11407;56.964;-2.212;2023-05-16T11:05:28;2.60;;;1.83;;
22480;SDS011;11407;56.964;-2.212;2023-05-16T11:08:06;5.30;;;2.07;;
22480;SDS011;11407;56.964;-2.212;2023-05-16T11:10:32;4.23;;;1.80;;
22480;SDS011;11407;56.964;-2.212;2023-05-16T11:13:02;5.10;;;1.90;;
22480;SDS011;11407;56.964;-2.212;2023-05-16T11:15:30;2.97;;;1.97;;
22480;SDS011;11407;56.964;-2.212;2023-05-16T11:18:06;4.10;;;2.00;;
22480;SDS011;11407;56.964;-2.212;2023-05-16T11:20:32;3.87;;;1.80;;
22480;SDS011;11407;56.964;-2.212;2023-05-16T11:25:42;3.90;;;1.80;;
22480;SDS011;11407;56.964;-2.212;2023-05-16T11:28:09;3.93;;;1.70;;
22480;SDS011;11407;56.964;-2.212;2023-05-16T11:30:36;5.30;;;2.03;;
22480;SDS011;11407;56.964;-2.212;2023-05-16T11:33:05;4.53;;;1.80;;
22480;SDS011;11407;56.964;-2.212;2023-05-16T11:35:31;3.70;;;1.87;;
22480;SDS011;11407;56.964;-2.212;2023-05-16T11:37:57;4.53;;;1.77;;
22480;SDS011;11407;56.964;-2.212;2023-05-16T11:40:23;5.90;;;1.87;;
22480;SDS011;11407;56.964;-2.212;2023-05-16T11:42:48;4.87;;;1.90;;
22480;SDS011;11407;56.964;-2.212;2023-05-16T11:45:14;6.57;;;2.00;;
22480;SDS011;11407;56.964;-2.212;2023-05-16T11:47:41;4.53;;;1.93;;
22480;SDS011;11407;56.964;-2.212;2023-05-16T11:50:10;3.83;;;1.70;;
22480;SDS011;11407;56.964;-2.212;2023-05-16T11:52:36;6.27;;;1.97;;
22480;SDS011;11407;56.964;-2.212;2023-05-16T11:55:03;7.53;;;2.17;;
22480;SDS011;11407;56.964;-2.212;2023-05-16T11:57:28;6.30;;;1.83;;
22480;SDS011;11407;56.964;-2.212;2023-05-16T11:59:54;5.63;;;2.00;;
22480;SDS011;11407;56.964;-2.212;2023-05-16T12:02:19;6.80;;;2.00;;
22480;SDS011;11407;56.964;-2.212;2023-05-16T12:04:45;5.40;;;2.10;;
22480;SDS011;11407;56.964;-2.212;2023-05-16T12:07:10;5.47;;;2.30;;
22480;SDS011;11407;56.964;-2.212;2023-05-16T12:09:36;7.37;;;2.23;;
22480;SDS011;11407;56.964;-2.212;2023-05-16T12:12:02;5.37;;;1.70;;
22480;SDS011;11407;56.964;-2.212;2023-05-16T12:14:28;8.23;;;2.00;;
22480;SDS011;11407;56.964;-2.212;2023-05-16T12:16:54;4.40;;;1.87;;
22480;SDS011;11407;56.964;-2.212;2023-05-16T12:19:19;9.77;;;2.30;;
22480;SDS011;11407;56.964;-2.212;2023-05-16T12:21:45;8.00;;;2.00;;
22480;SDS011;11407;56.964;-2.212;2023-05-16T12:24:10;7.40;;;2.33;;
22480;SDS011;11407;56.964;-2.212;2023-05-16T12:26:37;8.30;;;2.00;;
22480;SDS011;11407;56.964;-2.212;2023-05-16T12:29:03;6.27;;;1.80;;
22480;SDS011;11407;56.964;-2.212;2023-05-16T12:31:30;9.60;;;2.10;;
22480;SDS011;11407;56.964;-2.212;2023-05-16T12:33:55;9.23;;;2.00;;
22480;SDS011;11407;56.964;-2.212;2023-05-16T12:36:21;6.83;;;1.73;;
22480;SDS011;11407;56.964;-2.212;2023-05-16T12:38:46;8.40;;;2.20;;
22480;SDS011;11407;56.964;-2.212;2023-05-16T12:41:18;6.83;;;2.37;;
22480;SDS011;11407;56.964;-2.212;2023-05-16T12:43:45;10.87;;;2.93;;
22480;SDS011;11407;56.964;-2.212;2023-05-16T12:46:11;7.03;;;2.23;;
22480;SDS011;11407;56.964;-2.212;2023-05-16T12:48:36;7.43;;;2.30;;
22480;SDS011;11407;56.964;-2.212;2023-05-16T12:51:10;7.53;;;2.37;;
22480;SDS011;11407;56.964;-2.212;2023-05-16T12:53:44;11.83;;;2.80;;
22480;SDS011;11407;56.964;-2.212;2023-05-16T12:56:10;7.87;;;2.10;;
22480;SDS011;11407;56.964;-2.212;2023-05-16T12:58:36;6.53;;;1.97;;
22480;SDS011;11407;56.964;-2.212;2023-05-16T13:01:01;6.10;;;1.73;;
22480;SDS011;11407;56.964;-2.212;2023-05-16T13:03:27;4.97;;;2.00;;
22480;SDS011;11407;56.964;-2.212;2023-05-16T13:05:52;8.23;;;2.20;;
22480;SDS011;11407;56.964;-2.212;2023-05-16T13:08:18;7.67;;;2.00;;
22480;SDS011;11407;56.964;-2.212;2023-05-16T13:10:44;11.33;;;2.20;;
22480;SDS011;11407;56.964;-2.212;2023-05-16T13:13:09;6.37;;;1.93;;
22480;SDS011;11407;56.964;-2.212;2023-05-16T13:15:34;8.00;;;2.10;;
22480;SDS011;11407;56.964;-2.212;2023-05-16T13:18:00;7.00;;;1.90;;
22480;SDS011;11407;56.964;-2.212;2023-05-16T13:20:25;8.03;;;1.90;;
22480;SDS011;11407;56.964;-2.212;2023-05-16T13:22:50;7.63;;;2.13;;
22480;SDS011;11407;56.964;-2.212;2023-05-16T13:25:16;6.23;;;1.83;;
22480;SDS011;11407;56.964;-2.212;2023-05-16T13:27:41;7.57;;;1.87;;
22480;SDS011;11407;56.964;-2.212;2023-05-16T13:30:07;6.47;;;2.00;;
22480;SDS011;11407;56.964;-2.212;2023-05-16T13:32:32;2.97;;;1.33;;
22480;SDS011;11407;56.964;-2.212;2023-05-16T13:34:58;5.63;;;2.10;;
22480;SDS011;11407;56.964;-2.212;2023-05-16T13:37:23;4.53;;;1.43;;
22480;SDS011;11407;56.964;-2.212;2023-05-16T13:39:48;4.97;;;1.97;;
22480;SDS011;11407;56.964;-2.212;2023-05-16T13:42:14;4.87;;;1.67;;
22480;SDS011;11407;56.964;-2.212;2023-05-16T13:44:39;4.20;;;1.67;;
22480;SDS011;11407;56.964;-2.212;2023-05-16T13:47:04;5.60;;;1.90;;
22480;SDS011;11407;56.964;-2.212;2023-05-16T13:49:29;5.70;;;1.80;;
22480;SDS011;11407;56.964;-2.212;2023-05-16T13:51:55;6.33;;;1.70;;
22480;SDS011;11407;56.964;-2.212;2023-05-16T13:54:22;3.73;;;1.53;;
22480;SDS011;11407;56.964;-2.212;2023-05-16T13:56:47;6.23;;;1.80;;
22480;SDS011;11407;56.964;-2.212;2023-05-16T13:59:13;6.63;;;2.00;;
22480;SDS011;11407;56.964;-2.212;2023-05-16T14:01:38;7.83;;;1.90;;
22480;SDS011;11407;56.964;-2.212;2023-05-16T14:04:03;7.80;;;1.90;;
22480;SDS011;11407;56.964;-2.212;2023-05-16T14:06:29;4.77;;;1.87;;
22480;SDS011;11407;56.964;-2.212;2023-05-16T14:08:55;3.73;;;1.57;;
22480;SDS011;11407;56.964;-2.212;2023-05-16T14:11:20;4.87;;;1.57;;
22480;SDS011;11407;56.964;-2.212;2023-05-16T14:13:50;5.70;;;1.90;;
22480;SDS011;11407;56.964;-2.212;2023-05-16T14:16:16;5.90;;;1.70;;
22480;SDS011;11407;56.964;-2.212;2023-05-16T14:18:41;6.27;;;1.90;;
22480;SDS011;11407;56.964;-2.212;2023-05-16T14:21:06;7.20;;;1.90;;
22480;SDS011;11407;56.964;-2.212;2023-05-16T14:23:32;7.37;;;1.80;;
22480;SDS011;11407;56.964;-2.212;2023-05-16T14:25:57;4.83;;;2.00;;
22480;SDS011;11407;56.964;-2.212;2023-05-16T14:28:22;3.83;;;1.60;;
22480;SDS011;11407;56.964;-2.212;2023-05-16T14:30:48;5.27;;;1.73;;
22480;SDS011;11407;56.964;-2.212;2023-05-16T14:33:13;7.50;;;2.27;;
22480;SDS011;11407;56.964;-2.212;2023-05-16T14:35:38;6.33;;;2.00;;
22480;SDS011;11407;56.964;-2.212;2023-05-16T14:38:05;8.90;;;2.27;;
22480;SDS011;11407;56.964;-2.212;2023-05-16T14:40:31;9.67;;;2.07;;
22480;SDS011;11407;56.964;-2.212;2023-05-16T14:42:56;5.07;;;1.57;;
22480;SDS011;11407;56.964;-2.212;2023-05-16T14:45:21;6.97;;;1.80;;
22480;SDS011;11407;56.964;-2.212;2023-05-16T14:47:47;8.03;;;1.93;;